Boylston, New York
Current Conditions -  °F | °C
As of 8:56 PM on Friday 28 Nov 2014 (Local Time) from KART Reporting Station
Few Clouds Few Clouds  
Wind Chill: 17°   Ceiling: Unl
Heat Index: 24°   Visibility: 10mi
Dew Point: 11°   Wind: 6mph
Humidity: 57%   Direction: 340°NNW
Pressure: 30.2"   Gusts: NA
Location:  43.6481°N, 75.9881°W
Report Text: KART 290156Z AUTO 34005KT 10SM FEW046 M04/M12 A3020 RMK AO2 SLP235 T10441117 $
Loading
Personal Weather Stations






























Interactive Weather Map New forecast layout! Learn more

10-Day Weather Forecast

Advertisements
Track Severe Weather on mobile